Search for airport 
image banner adimage banner adimage banner ad
image banner ad

PS34 - North Penn Usarc

Located in Worcester, United States

ICAO - PS34, IATA -

Data provided by Airmate  

General information

Coordinates: N40°11'30" W75°20'29"
Elevation is 450 feet MSL.
Magnetic variation is -11° East
View others Airports in Pennsylvania

Operational data

Special qualification required
Current time UTC:
Current local time:
Weather at : KLOM - Wings Field ( 9 km )
METAR: KLOM 091635Z AUTO 22010KT 10SM SCT040 BKN060 OVC080 13/04 A3007 RMK AO2 T01340042
View NOTAMs / SUP AIP / TFR affecting this airport [VIEW]
Communications frequencies: [VIEW]

Runways:

Airport contact information

Address: Worcester United States

Satellite view of PS34